sensor_id;sensor_type;location;lat;lon;timestamp;pressure;altitude;pressure_sealevel;temperature
11926;BMP180;6022;48.768;18.608;2023-04-25T00:01:25;97401.69;;;10.74
11926;BMP180;6022;48.768;18.608;2023-04-25T00:03:53;97398.88;;;10.77
11926;BMP180;6022;48.768;18.608;2023-04-25T00:06:21;97394.50;;;10.79
11926;BMP180;6022;48.768;18.608;2023-04-25T00:08:48;97396.69;;;10.84
11926;BMP180;6022;48.768;18.608;2023-04-25T00:11:15;97388.25;;;10.83
11926;BMP180;6022;48.768;18.608;2023-04-25T00:13:43;97381.56;;;10.82
11926;BMP180;6022;48.768;18.608;2023-04-25T00:16:10;97384.78;;;10.84
11926;BMP180;6022;48.768;18.608;2023-04-25T00:18:38;97384.09;;;10.82
11926;BMP180;6022;48.768;18.608;2023-04-25T00:21:05;97379.16;;;10.81
11926;BMP180;6022;48.768;18.608;2023-04-25T00:23:33;97375.81;;;10.80
11926;BMP180;6022;48.768;18.608;2023-04-25T00:26:07;97370.19;;;10.77
11926;BMP180;6022;48.768;18.608;2023-04-25T00:28:37;97375.00;;;10.80
11926;BMP180;6022;48.768;18.608;2023-04-25T00:31:04;97377.53;;;10.80
11926;BMP180;6022;48.768;18.608;2023-04-25T00:33:31;97379.28;;;10.79
11926;BMP180;6022;48.768;18.608;2023-04-25T00:35:59;97368.22;;;10.80
11926;BMP180;6022;48.768;18.608;2023-04-25T00:38:31;97371.44;;;10.82
11926;BMP180;6022;48.768;18.608;2023-04-25T00:40:58;97369.69;;;10.83
11926;BMP180;6022;48.768;18.608;2023-04-25T00:43:27;97375.56;;;10.83
11926;BMP180;6022;48.768;18.608;2023-04-25T00:45:56;97381.13;;;10.77
11926;BMP180;6022;48.768;18.608;2023-04-25T00:48:24;97378.47;;;10.79
11926;BMP180;6022;48.768;18.608;2023-04-25T00:50:57;97382.06;;;10.76
11926;BMP180;6022;48.768;18.608;2023-04-25T00:53:26;97387.59;;;10.70
11926;BMP180;6022;48.768;18.608;2023-04-25T00:55:54;97378.41;;;10.69
11926;BMP180;6022;48.768;18.608;2023-04-25T00:58:22;97386.25;;;10.66
11926;BMP180;6022;48.768;18.608;2023-04-25T01:00:51;97385.44;;;10.66
11926;BMP180;6022;48.768;18.608;2023-04-25T01:03:19;97389.53;;;10.57
11926;BMP180;6022;48.768;18.608;2023-04-25T01:05:48;97383.53;;;10.58
11926;BMP180;6022;48.768;18.608;2023-04-25T01:08:15;97384.31;;;10.59
11926;BMP180;6022;48.768;18.608;2023-04-25T01:10:42;97388.72;;;10.57
11926;BMP180;6022;48.768;18.608;2023-04-25T01:13:10;97386.06;;;10.58
11926;BMP180;6022;48.768;18.608;2023-04-25T01:15:37;97385.16;;;10.59
11926;BMP180;6022;48.768;18.608;2023-04-25T01:18:06;97379.41;;;10.57
11926;BMP180;6022;48.768;18.608;2023-04-25T01:20:34;97383.91;;;10.54
11926;BMP180;6022;48.768;18.608;2023-04-25T01:23:01;97381.22;;;10.55
11926;BMP180;6022;48.768;18.608;2023-04-25T01:25:31;97384.47;;;10.57
11926;BMP180;6022;48.768;18.608;2023-04-25T01:27:58;97377.78;;;10.56
11926;BMP180;6022;48.768;18.608;2023-04-25T01:30:27;97386.28;;;10.55
11926;BMP180;6022;48.768;18.608;2023-04-25T01:32:55;97385.41;;;10.46
11926;BMP180;6022;48.768;18.608;2023-04-25T01:35:24;97392.78;;;10.49
11926;BMP180;6022;48.768;18.608;2023-04-25T01:37:52;97394.28;;;10.51
11926;BMP180;6022;48.768;18.608;2023-04-25T01:40:21;97394.38;;;10.50
11926;BMP180;6022;48.768;18.608;2023-04-25T01:42:50;97392.78;;;10.49
11926;BMP180;6022;48.768;18.608;2023-04-25T01:45:18;97387.28;;;10.44
11926;BMP180;6022;48.768;18.608;2023-04-25T01:47:45;97395.81;;;10.43
11926;BMP180;6022;48.768;18.608;2023-04-25T01:50:18;97393.41;;;10.41
11926;BMP180;6022;48.768;18.608;2023-04-25T01:52:46;97382.09;;;10.45
11926;BMP180;6022;48.768;18.608;2023-04-25T01:55:13;97388.91;;;10.45
11926;BMP180;6022;48.768;18.608;2023-04-25T01:57:40;97390.75;;;10.43
11926;BMP180;6022;48.768;18.608;2023-04-25T02:00:09;97388.91;;;10.45
11926;BMP180;6022;48.768;18.608;2023-04-25T02:02:37;97386.69;;;10.40
11926;BMP180;6022;48.768;18.608;2023-04-25T02:05:05;97397.91;;;10.38
11926;BMP180;6022;48.768;18.608;2023-04-25T02:07:32;97395.47;;;10.36
11926;BMP180;6022;48.768;18.608;2023-04-25T02:09:59;97392.38;;;10.33
11926;BMP180;6022;48.768;18.608;2023-04-25T02:12:28;97403.00;;;10.27
11926;BMP180;6022;48.768;18.608;2023-04-25T02:14:55;97395.28;;;10.28
11926;BMP180;6022;48.768;18.608;2023-04-25T02:17:22;97396.44;;;10.24
11926;BMP180;6022;48.768;18.608;2023-04-25T02:19:49;97402.41;;;10.23
11926;BMP180;6022;48.768;18.608;2023-04-25T02:22:17;97408.75;;;10.29
11926;BMP180;6022;48.768;18.608;2023-04-25T02:24:44;97402.31;;;10.25
11926;BMP180;6022;48.768;18.608;2023-04-25T02:27:11;97409.00;;;10.26
11926;BMP180;6022;48.768;18.608;2023-04-25T02:29:38;97405.78;;;10.24
11926;BMP180;6022;48.768;18.608;2023-04-25T02:32:05;97406.56;;;10.24
11926;BMP180;6022;48.768;18.608;2023-04-25T02:34:33;97409.00;;;10.26
11926;BMP180;6022;48.768;18.608;2023-04-25T02:37:00;97412.69;;;10.22
11926;BMP180;6022;48.768;18.608;2023-04-25T02:39:27;97407.63;;;10.22
11926;BMP180;6022;48.768;18.608;2023-04-25T02:41:54;97407.75;;;10.20
11926;BMP180;6022;48.768;18.608;2023-04-25T02:44:21;97400.25;;;10.19
11926;BMP180;6022;48.768;18.608;2023-04-25T02:46:49;97398.78;;;10.17
11926;BMP180;6022;48.768;18.608;2023-04-25T02:49:16;97406.38;;;10.17
11926;BMP180;6022;48.768;18.608;2023-04-25T02:51:43;97401.78;;;10.11
11926;BMP180;6022;48.768;18.608;2023-04-25T02:54:10;97405.91;;;10.12
11926;BMP180;6022;48.768;18.608;2023-04-25T02:56:37;97392.34;;;10.13
11926;BMP180;6022;48.768;18.608;2023-04-25T02:59:05;97391.75;;;10.09
11926;BMP180;6022;48.768;18.608;2023-04-25T03:01:32;97402.69;;;10.10
11926;BMP180;6022;48.768;18.608;2023-04-25T03:03:59;97401.66;;;10.12
11926;BMP180;6022;48.768;18.608;2023-04-25T03:06:26;97397.50;;;10.11
11926;BMP180;6022;48.768;18.608;2023-04-25T03:08:53;97393.63;;;10.07
11926;BMP180;6022;48.768;18.608;2023-04-25T03:11:21;97391.75;;;10.09
11926;BMP180;6022;48.768;18.608;2023-04-25T03:13:48;97393.63;;;10.07
11926;BMP180;6022;48.768;18.608;2023-04-25T03:16:15;97391.31;;;9.93
11926;BMP180;6022;48.768;18.608;2023-04-25T03:18:43;97391.53;;;9.90
11926;BMP180;6022;48.768;18.608;2023-04-25T03:21:10;97387.75;;;9.96
11926;BMP180;6022;48.768;18.608;2023-04-25T03:23:37;97384.97;;;9.99
11926;BMP180;6022;48.768;18.608;2023-04-25T03:26:04;97384.88;;;10.00
11926;BMP180;6022;48.768;18.608;2023-04-25T03:28:32;97394.06;;;10.01
11926;BMP180;6022;48.768;18.608;2023-04-25T03:30:59;97391.09;;;9.96
11926;BMP180;6022;48.768;18.608;2023-04-25T03:33:26;97393.16;;;9.91
11926;BMP180;6022;48.768;18.608;2023-04-25T03:35:53;97389.72;;;9.92
11926;BMP180;6022;48.768;18.608;2023-04-25T03:38:21;97383.03;;;9.91
11926;BMP180;6022;48.768;18.608;2023-04-25T03:40:49;97386.59;;;9.89
11926;BMP180;6022;48.768;18.608;2023-04-25T03:43:17;97393.25;;;9.90
11926;BMP180;6022;48.768;18.608;2023-04-25T03:45:45;97385.59;;;9.70
11926;BMP180;6022;48.768;18.608;2023-04-25T03:48:13;97378.31;;;9.54
11926;BMP180;6022;48.768;18.608;2023-04-25T03:50:40;97390.88;;;9.56
11926;BMP180;6022;48.768;18.608;2023-04-25T03:53:07;97380.53;;;9.59
11926;BMP180;6022;48.768;18.608;2023-04-25T03:55:35;97381.69;;;9.66
11926;BMP180;6022;48.768;18.608;2023-04-25T03:58:02;97386.84;;;9.75
11926;BMP180;6022;48.768;18.608;2023-04-25T04:00:29;97393.41;;;9.67
11926;BMP180;6022;48.768;18.608;2023-04-25T04:02:57;97399.03;;;9.70
11926;BMP180;6022;48.768;18.608;2023-04-25T04:05:24;97397.78;;;9.76
11926;BMP180;6022;48.768;18.608;2023-04-25T04:07:52;97388.31;;;9.78
11926;BMP180;6022;48.768;18.608;2023-04-25T04:10:19;97395.81;;;9.79
11926;BMP180;6022;48.768;18.608;2023-04-25T04:12:46;97392.47;;;9.78
11926;BMP180;6022;48.768;18.608;2023-04-25T04:15:13;97392.94;;;9.73
11926;BMP180;6022;48.768;18.608;2023-04-25T04:17:41;97401.00;;;9.78
11926;BMP180;6022;48.768;18.608;2023-04-25T04:20:08;97393.81;;;9.82
11926;BMP180;6022;48.768;18.608;2023-04-25T04:22:36;97395.22;;;9.86
11926;BMP180;6022;48.768;18.608;2023-04-25T04:25:04;97404.09;;;9.92
11926;BMP180;6022;48.768;18.608;2023-04-25T04:27:32;97404.91;;;9.92
11926;BMP180;6022;48.768;18.608;2023-04-25T04:30:00;97409.50;;;9.87
11926;BMP180;6022;48.768;18.608;2023-04-25T04:32:27;97398.22;;;9.80
11926;BMP180;6022;48.768;18.608;2023-04-25T04:34:54;97401.00;;;9.78
11926;BMP180;6022;48.768;18.608;2023-04-25T04:37:22;97397.66;;;9.77
11926;BMP180;6022;48.768;18.608;2023-04-25T04:39:49;97414.81;;;9.84
11926;BMP180;6022;48.768;18.608;2023-04-25T04:42:17;97409.50;;;9.87
11926;BMP180;6022;48.768;18.608;2023-04-25T04:44:44;97410.97;;;9.90
11926;BMP180;6022;48.768;18.608;2023-04-25T04:47:11;97406.75;;;9.90
11926;BMP180;6022;48.768;18.608;2023-04-25T04:49:41;97410.78;;;9.93
11926;BMP180;6022;48.768;18.608;2023-04-25T04:52:08;97400.84;;;9.90
11926;BMP180;6022;48.768;18.608;2023-04-25T04:54:44;97406.50;;;9.93
11926;BMP180;6022;48.768;18.608;2023-04-25T04:57:11;97406.97;;;9.98
11926;BMP180;6022;48.768;18.608;2023-04-25T04:59:38;97407.44;;;10.03
11926;BMP180;6022;48.768;18.608;2023-04-25T05:02:05;97412.50;;;10.03
11926;BMP180;6022;48.768;18.608;2023-04-25T05:04:33;97417.31;;;10.06
11926;BMP180;6022;48.768;18.608;2023-04-25T05:07:00;97407.56;;;10.02
11926;BMP180;6022;48.768;18.608;2023-04-25T05:09:27;97419.97;;;10.05
11926;BMP180;6022;48.768;18.608;2023-04-25T05:11:54;97425.38;;;10.11
11926;BMP180;6022;48.768;18.608;2023-04-25T05:14:21;97427.91;;;10.22
11926;BMP180;6022;48.768;18.608;2023-04-25T05:16:50;97424.22;;;10.15
11926;BMP180;6022;48.768;18.608;2023-04-25T05:19:17;97425.22;;;10.23
11926;BMP180;6022;48.768;18.608;2023-04-25T05:21:45;97433.66;;;10.24
11926;BMP180;6022;48.768;18.608;2023-04-25T05:24:12;97427.44;;;10.28
11926;BMP180;6022;48.768;18.608;2023-04-25T05:26:39;97429.47;;;10.34
11926;BMP180;6022;48.768;18.608;2023-04-25T05:29:07;97425.31;;;10.33
11926;BMP180;6022;48.768;18.608;2023-04-25T05:31:36;97424.06;;;10.27
11926;BMP180;6022;48.768;18.608;2023-04-25T05:34:03;97426.00;;;10.35
11926;BMP180;6022;48.768;18.608;2023-04-25T05:36:31;97425.88;;;10.36
11926;BMP180;6022;48.768;18.608;2023-04-25T05:38:59;97425.22;;;10.34
11926;BMP180;6022;48.768;18.608;2023-04-25T05:41:26;97423.94;;;10.29
11926;BMP180;6022;48.768;18.608;2023-04-25T05:43:53;97422.09;;;10.31
11926;BMP180;6022;48.768;18.608;2023-04-25T05:46:23;97419.84;;;10.17
11926;BMP180;6022;48.768;18.608;2023-04-25T05:48:51;97424.44;;;10.23
11926;BMP180;6022;48.768;18.608;2023-04-25T05:51:18;97432.50;;;10.28
11926;BMP180;6022;48.768;18.608;2023-04-25T05:53:45;97428.00;;;10.31
11926;BMP180;6022;48.768;18.608;2023-04-25T05:56:12;97432.50;;;10.17
11926;BMP180;6022;48.768;18.608;2023-04-25T05:58:40;97434.19;;;10.27
11926;BMP180;6022;48.768;18.608;2023-04-25T06:01:07;97426.06;;;10.24
11926;BMP180;6022;48.768;18.608;2023-04-25T06:03:36;97434.09;;;10.29
11926;BMP180;6022;48.768;18.608;2023-04-25T06:06:05;97425.22;;;10.34
11926;BMP180;6022;48.768;18.608;2023-04-25T06:08:32;97433.38;;;10.38
11926;BMP180;6022;48.768;18.608;2023-04-25T06:10:59;97429.09;;;10.38
11926;BMP180;6022;48.768;18.608;2023-04-25T06:13:27;97432.47;;;10.39
11926;BMP180;6022;48.768;18.608;2023-04-25T06:15:54;97430.72;;;10.39
11926;BMP180;6022;48.768;18.608;2023-04-25T06:18:21;97426.25;;;10.32
11926;BMP180;6022;48.768;18.608;2023-04-25T06:20:48;97441.44;;;10.43
11926;BMP180;6022;48.768;18.608;2023-04-25T06:23:16;97430.63;;;10.41
11926;BMP180;6022;48.768;18.608;2023-04-25T06:25:43;97441.44;;;10.43
11926;BMP180;6022;48.768;18.608;2023-04-25T06:28:10;97436.13;;;10.46
11926;BMP180;6022;48.768;18.608;2023-04-25T06:30:37;97434.53;;;10.45
11926;BMP180;6022;48.768;18.608;2023-04-25T06:33:06;97432.66;;;10.47
11926;BMP180;6022;48.768;18.608;2023-04-25T06:35:33;97432.75;;;10.56
11926;BMP180;6022;48.768;18.608;2023-04-25T06:38:01;97435.59;;;10.62
11926;BMP180;6022;48.768;18.608;2023-04-25T06:40:28;97441.13;;;10.67
11926;BMP180;6022;48.768;18.608;2023-04-25T06:42:55;97440.41;;;10.76
11926;BMP180;6022;48.768;18.608;2023-04-25T06:45:22;97442.63;;;10.90
11926;BMP180;6022;48.768;18.608;2023-04-25T06:47:49;97437.34;;;10.93
11926;BMP180;6022;48.768;18.608;2023-04-25T06:50:19;97438.69;;;10.97
11926;BMP180;6022;48.768;18.608;2023-04-25T06:52:46;97441.41;;;11.05
11926;BMP180;6022;48.768;18.608;2023-04-25T06:55:21;97440.72;;;11.03
11926;BMP180;6022;48.768;18.608;2023-04-25T06:57:49;97441.72;;;11.11
11926;BMP180;6022;48.768;18.608;2023-04-25T07:00:17;97433.59;;;11.17
11926;BMP180;6022;48.768;18.608;2023-04-25T07:02:44;97435.84;;;11.11
11926;BMP180;6022;48.768;18.608;2023-04-25T07:05:12;97442.09;;;11.07
11926;BMP180;6022;48.768;18.608;2023-04-25T07:07:42;97439.41;;;10.88
11926;BMP180;6022;48.768;18.608;2023-04-25T07:10:12;97440.13;;;11.10
11926;BMP180;6022;48.768;18.608;2023-04-25T07:12:40;97433.53;;;11.08
11926;BMP180;6022;48.768;18.608;2023-04-25T07:15:09;97440.66;;;10.93
11926;BMP180;6022;48.768;18.608;2023-04-25T07:17:38;97440.06;;;11.01
11926;BMP180;6022;48.768;18.608;2023-04-25T07:20:11;97445.63;;;10.95
11926;BMP180;6022;48.768;18.608;2023-04-25T07:22:39;97454.53;;;11.10
11926;BMP180;6022;48.768;18.608;2023-04-25T07:25:06;97444.56;;;10.97
11926;BMP180;6022;48.768;18.608;2023-04-25T07:27:45;97446.03;;;11.00
11926;BMP180;6022;48.768;18.608;2023-04-25T07:30:13;97451.91;;;10.80
11926;BMP180;6022;48.768;18.608;2023-04-25T07:32:40;97447.53;;;10.82
11926;BMP180;6022;48.768;18.608;2023-04-25T07:35:08;97447.16;;;10.87
11926;BMP180;6022;48.768;18.608;2023-04-25T07:37:36;97454.69;;;10.77
11926;BMP180;6022;48.768;18.608;2023-04-25T07:40:07;97449.06;;;10.63
11926;BMP180;6022;48.768;18.608;2023-04-25T07:42:36;97447.47;;;10.62
11926;BMP180;6022;48.768;18.608;2023-04-25T07:45:09;97450.38;;;10.57
11926;BMP180;6022;48.768;18.608;2023-04-25T07:47:36;97454.72;;;10.66
11926;BMP180;6022;48.768;18.608;2023-04-25T07:50:07;97454.53;;;10.58
11926;BMP180;6022;48.768;18.608;2023-04-25T07:52:34;97455.41;;;10.68
11926;BMP180;6022;48.768;18.608;2023-04-25T07:55:04;97446.88;;;10.69
11926;BMP180;6022;48.768;18.608;2023-04-25T07:57:32;97451.00;;;10.70
11926;BMP180;6022;48.768;18.608;2023-04-25T08:00:02;97457.00;;;10.80
11926;BMP180;6022;48.768;18.608;2023-04-25T08:02:29;97453.59;;;10.91
11926;BMP180;6022;48.768;18.608;2023-04-25T08:04:56;97457.41;;;10.85
11926;BMP180;6022;48.768;18.608;2023-04-25T08:07:24;97453.28;;;10.84
11926;BMP180;6022;48.768;18.608;2023-04-25T08:09:52;97451.31;;;10.88
11926;BMP180;6022;48.768;18.608;2023-04-25T08:12:19;97449.06;;;10.94
11926;BMP180;6022;48.768;18.608;2023-04-25T08:14:51;97443.97;;;11.25
11926;BMP180;6022;48.768;18.608;2023-04-25T08:17:18;97457.53;;;11.55
11926;BMP180;6022;48.768;18.608;2023-04-25T08:19:46;97448.72;;;11.59
11926;BMP180;6022;48.768;18.608;2023-04-25T08:22:14;97446.41;;;11.86
11926;BMP180;6022;48.768;18.608;2023-04-25T08:24:41;97447.22;;;11.86
11926;BMP180;6022;48.768;18.608;2023-04-25T08:27:09;97440.78;;;12.21
11926;BMP180;6022;48.768;18.608;2023-04-25T08:29:44;97444.41;;;12.28
11926;BMP180;6022;48.768;18.608;2023-04-25T08:32:19;97446.78;;;12.11
11926;BMP180;6022;48.768;18.608;2023-04-25T08:34:52;97455.50;;;12.27
11926;BMP180;6022;48.768;18.608;2023-04-25T08:37:24;97454.78;;;12.07
11926;BMP180;6022;48.768;18.608;2023-04-25T08:39:52;97459.16;;;11.95
11926;BMP180;6022;48.768;18.608;2023-04-25T08:42:33;97458.50;;;11.93
11926;BMP180;6022;48.768;18.608;2023-04-25T08:45:09;97456.59;;;11.86
11926;BMP180;6022;48.768;18.608;2023-04-25T08:47:51;97462.97;;;11.80
11926;BMP180;6022;48.768;18.608;2023-04-25T08:50:23;97458.97;;;11.78
11926;BMP180;6022;48.768;18.608;2023-04-25T08:53:13;97461.34;;;11.70
11926;BMP180;6022;48.768;18.608;2023-04-25T08:56:08;97454.84;;;11.86
11926;BMP180;6022;48.768;18.608;2023-04-25T08:58:40;97455.91;;;11.84
11926;BMP180;6022;48.768;18.608;2023-04-25T09:01:08;97452.72;;;11.91
11926;BMP180;6022;48.768;18.608;2023-04-25T09:03:40;97449.09;;;11.84
11926;BMP180;6022;48.768;18.608;2023-04-25T09:06:16;97450.31;;;11.90
11926;BMP180;6022;48.768;18.608;2023-04-25T09:08:45;97441.28;;;12.06
11926;BMP180;6022;48.768;18.608;2023-04-25T09:11:13;97441.84;;;11.80
11926;BMP180;6022;48.768;18.608;2023-04-25T09:13:45;97442.00;;;11.58
11926;BMP180;6022;48.768;18.608;2023-04-25T09:16:17;97432.16;;;11.65
11926;BMP180;6022;48.768;18.608;2023-04-25T09:18:48;97440.38;;;11.48
11926;BMP180;6022;48.768;18.608;2023-04-25T09:21:16;97439.91;;;11.23
11926;BMP180;6022;48.768;18.608;2023-04-25T09:23:47;97439.31;;;11.50
11926;BMP180;6022;48.768;18.608;2023-04-25T09:26:21;97437.22;;;11.55
11926;BMP180;6022;48.768;18.608;2023-04-25T09:29:07;97440.56;;;11.95
11926;BMP180;6022;48.768;18.608;2023-04-25T09:31:37;97437.66;;;12.08
11926;BMP180;6022;48.768;18.608;2023-04-25T09:34:07;97438.91;;;12.23
11926;BMP180;6022;48.768;18.608;2023-04-25T09:37:06;97434.53;;;12.35
11926;BMP180;6022;48.768;18.608;2023-04-25T09:39:33;97439.38;;;12.47
11926;BMP180;6022;48.768;18.608;2023-04-25T09:42:09;97426.00;;;12.64
11926;BMP180;6022;48.768;18.608;2023-04-25T09:45:40;97431.63;;;12.77
11926;BMP180;6022;48.768;18.608;2023-04-25T09:48:28;97423.84;;;12.78
11926;BMP180;6022;48.768;18.608;2023-04-25T09:51:22;97432.25;;;13.35
11926;BMP180;6022;48.768;18.608;2023-04-25T09:54:06;97433.16;;;13.79
11926;BMP180;6022;48.768;18.608;2023-04-25T09:56:37;97437.09;;;14.36
11926;BMP180;6022;48.768;18.608;2023-04-25T09:59:08;97427.28;;;14.59
11926;BMP180;6022;48.768;18.608;2023-04-25T10:01:40;97430.63;;;14.94
11926;BMP180;6022;48.768;18.608;2023-04-25T10:04:11;97430.06;;;14.82
11926;BMP180;6022;48.768;18.608;2023-04-25T10:06:41;97428.56;;;14.63
11926;BMP180;6022;48.768;18.608;2023-04-25T10:09:11;97427.72;;;14.54
11926;BMP180;6022;48.768;18.608;2023-04-25T10:11:40;97433.50;;;14.30
11926;BMP180;6022;48.768;18.608;2023-04-25T10:14:07;97430.09;;;13.85
11926;BMP180;6022;48.768;18.608;2023-04-25T10:16:36;97435.78;;;13.60
11926;BMP180;6022;48.768;18.608;2023-04-25T10:19:03;97432.16;;;13.72
11926;BMP180;6022;48.768;18.608;2023-04-25T10:21:32;97436.84;;;13.67
11926;BMP180;6022;48.768;18.608;2023-04-25T10:24:01;97441.13;;;13.76
11926;BMP180;6022;48.768;18.608;2023-04-25T10:26:29;97443.38;;;13.79
11926;BMP180;6022;48.768;18.608;2023-04-25T10:29:02;97438.16;;;13.71
11926;BMP180;6022;48.768;18.608;2023-04-25T10:31:32;97436.97;;;13.66
11926;BMP180;6022;48.768;18.608;2023-04-25T10:34:01;97432.56;;;13.58
11926;BMP180;6022;48.768;18.608;2023-04-25T10:36:32;97425.22;;;13.10
11926;BMP180;6022;48.768;18.608;2023-04-25T10:39:05;97425.44;;;12.70
11926;BMP180;6022;48.768;18.608;2023-04-25T10:41:56;97421.25;;;12.31
11926;BMP180;6022;48.768;18.608;2023-04-25T10:44:30;97415.25;;;12.42
11926;BMP180;6022;48.768;18.608;2023-04-25T10:47:01;97427.19;;;12.69
11926;BMP180;6022;48.768;18.608;2023-04-25T10:49:42;97422.91;;;12.70
11926;BMP180;6022;48.768;18.608;2023-04-25T10:52:28;97419.41;;;12.43
11926;BMP180;6022;48.768;18.608;2023-04-25T10:54:58;97415.53;;;12.48
11926;BMP180;6022;48.768;18.608;2023-04-25T10:57:44;97428.41;;;12.75
11926;BMP180;6022;48.768;18.608;2023-04-25T11:00:19;97430.81;;;12.76
11926;BMP180;6022;48.768;18.608;2023-04-25T11:03:21;97423.59;;;12.90
11926;BMP180;6022;48.768;18.608;2023-04-25T11:06:10;97433.78;;;12.90
11926;BMP180;6022;48.768;18.608;2023-04-25T11:08:53;97431.63;;;12.77
11926;BMP180;6022;48.768;18.608;2023-04-25T11:11:21;97417.16;;;12.68
11926;BMP180;6022;48.768;18.608;2023-04-25T11:14:19;97427.88;;;12.71
11926;BMP180;6022;48.768;18.608;2023-04-25T11:16:57;97416.50;;;12.84
11926;BMP180;6022;48.768;18.608;2023-04-25T11:19:48;97421.25;;;13.25
11926;BMP180;6022;48.768;18.608;2023-04-25T11:22:21;97424.28;;;13.57
11926;BMP180;6022;48.768;18.608;2023-04-25T11:24:48;97419.50;;;13.44
11926;BMP180;6022;48.768;18.608;2023-04-25T11:27:16;97423.00;;;13.34
11926;BMP180;6022;48.768;18.608;2023-04-25T11:29:43;97425.34;;;13.63
11926;BMP180;6022;48.768;18.608;2023-04-25T11:32:11;97441.38;;;13.73
11926;BMP180;6022;48.768;18.608;2023-04-25T11:34:38;97434.09;;;13.88
11926;BMP180;6022;48.768;18.608;2023-04-25T11:37:05;97436.41;;;14.17
11926;BMP180;6022;48.768;18.608;2023-04-25T11:39:34;97435.97;;;14.22
11926;BMP180;6022;48.768;18.608;2023-04-25T11:42:03;97431.06;;;14.37
11926;BMP180;6022;48.768;18.608;2023-04-25T11:44:34;97424.13;;;14.82
11926;BMP180;6022;48.768;18.608;2023-04-25T11:47:31;97430.91;;;15.25
11926;BMP180;6022;48.768;18.608;2023-04-25T11:50:10;97432.03;;;15.31
11926;BMP180;6022;48.768;18.608;2023-04-25T11:52:45;97426.78;;;14.90
11926;BMP180;6022;48.768;18.608;2023-04-25T11:55:20;97420.56;;;14.14
11926;BMP180;6022;48.768;18.608;2023-04-25T11:57:50;97419.56;;;14.24
11926;BMP180;6022;48.768;18.608;2023-04-25T12:00:20;97419.53;;;14.51
11926;BMP180;6022;48.768;18.608;2023-04-25T12:02:55;97422.94;;;14.25
11926;BMP180;6022;48.768;18.608;2023-04-25T12:05:30;97429.94;;;14.23
11926;BMP180;6022;48.768;18.608;2023-04-25T12:08:15;97417.13;;;14.49
11926;BMP180;6022;48.768;18.608;2023-04-25T12:10:46;97424.44;;;14.79
11926;BMP180;6022;48.768;18.608;2023-04-25T12:13:25;97421.00;;;14.53
11926;BMP180;6022;48.768;18.608;2023-04-25T12:15:57;97424.13;;;14.47
11926;BMP180;6022;48.768;18.608;2023-04-25T12:18:26;97424.47;;;14.35
11926;BMP180;6022;48.768;18.608;2023-04-25T12:20:55;97428.66;;;14.71
11926;BMP180;6022;48.768;18.608;2023-04-25T12:23:28;97429.16;;;15.09
11926;BMP180;6022;48.768;18.608;2023-04-25T12:25:57;97416.50;;;15.49
11926;BMP180;6022;48.768;18.608;2023-04-25T12:28:25;97415.31;;;14.94
11926;BMP180;6022;48.768;18.608;2023-04-25T12:31:09;97414.41;;;14.85
11926;BMP180;6022;48.768;18.608;2023-04-25T12:33:37;97418.94;;;14.91
11926;BMP180;6022;48.768;18.608;2023-04-25T12:36:14;97422.50;;;15.15
11926;BMP180;6022;48.768;18.608;2023-04-25T12:38:47;97425.34;;;15.30
11926;BMP180;6022;48.768;18.608;2023-04-25T12:41:15;97423.38;;;14.89
11926;BMP180;6022;48.768;18.608;2023-04-25T12:43:42;97416.94;;;15.03
11926;BMP180;6022;48.768;18.608;2023-04-25T12:46:10;97414.41;;;14.85
11926;BMP180;6022;48.768;18.608;2023-04-25T12:48:49;97415.69;;;14.47
11926;BMP180;6022;48.768;18.608;2023-04-25T12:51:16;97401.66;;;14.68
11926;BMP180;6022;48.768;18.608;2023-04-25T12:53:44;97395.59;;;15.46
11926;BMP180;6022;48.768;18.608;2023-04-25T12:56:11;97394.63;;;15.05
11926;BMP180;6022;48.768;18.608;2023-04-25T12:58:51;97396.91;;;14.90
11926;BMP180;6022;48.768;18.608;2023-04-25T13:01:21;97381.00;;;14.96
11926;BMP180;6022;48.768;18.608;2023-04-25T13:03:51;97387.03;;;15.12
11926;BMP180;6022;48.768;18.608;2023-04-25T13:06:22;97387.41;;;15.17
11926;BMP180;6022;48.768;18.608;2023-04-25T13:08:50;97385.66;;;15.01
11926;BMP180;6022;48.768;18.608;2023-04-25T13:11:20;97388.97;;;14.76
11926;BMP180;6022;48.768;18.608;2023-04-25T13:13:56;97384.16;;;14.38
11926;BMP180;6022;48.768;18.608;2023-04-25T13:16:25;97387.63;;;14.47
11926;BMP180;6022;48.768;18.608;2023-04-25T13:18:53;97384.34;;;14.54
11926;BMP180;6022;48.768;18.608;2023-04-25T13:21:23;97371.09;;;14.24
11926;BMP180;6022;48.768;18.608;2023-04-25T13:23:50;97366.88;;;14.50
11926;BMP180;6022;48.768;18.608;2023-04-25T13:26:18;97360.47;;;14.63
11926;BMP180;6022;48.768;18.608;2023-04-25T13:28:45;97372.94;;;14.66
11926;BMP180;6022;48.768;18.608;2023-04-25T13:31:16;97367.31;;;14.80
11926;BMP180;6022;48.768;18.608;2023-04-25T13:33:44;97366.94;;;14.92
11926;BMP180;6022;48.768;18.608;2023-04-25T13:36:13;97370.69;;;15.06
11926;BMP180;6022;48.768;18.608;2023-04-25T13:38:40;97362.34;;;14.78
11926;BMP180;6022;48.768;18.608;2023-04-25T13:41:11;97368.88;;;14.73
11926;BMP180;6022;48.768;18.608;2023-04-25T13:43:42;97373.53;;;14.60
11926;BMP180;6022;48.768;18.608;2023-04-25T13:46:10;97378.56;;;14.70
11926;BMP180;6022;48.768;18.608;2023-04-25T13:48:59;97373.34;;;14.96
11926;BMP180;6022;48.768;18.608;2023-04-25T13:51:39;97377.97;;;14.75
11926;BMP180;6022;48.768;18.608;2023-04-25T13:54:07;97373.06;;;14.82
11926;BMP180;6022;48.768;18.608;2023-04-25T13:56:35;97380.53;;;14.75
11926;BMP180;6022;48.768;18.608;2023-04-25T13:59:02;97376.00;;;14.70
11926;BMP180;6022;48.768;18.608;2023-04-25T14:01:30;97378.31;;;14.63
11926;BMP180;6022;48.768;18.608;2023-04-25T14:03:58;97381.09;;;14.52
11926;BMP180;6022;48.768;18.608;2023-04-25T14:06:25;97382.50;;;14.47
11926;BMP180;6022;48.768;18.608;2023-04-25T14:08:57;97381.78;;;14.54
11926;BMP180;6022;48.768;18.608;2023-04-25T14:11:38;97382.34;;;14.48
11926;BMP180;6022;48.768;18.608;2023-04-25T14:14:08;97383.13;;;14.32
11926;BMP180;6022;48.768;18.608;2023-04-25T14:16:36;97387.28;;;14.15
11926;BMP180;6022;48.768;18.608;2023-04-25T14:19:03;97379.91;;;14.30
11926;BMP180;6022;48.768;18.608;2023-04-25T14:21:30;97364.13;;;14.61
11926;BMP180;6022;48.768;18.608;2023-04-25T14:24:00;97372.50;;;14.71
11926;BMP180;6022;48.768;18.608;2023-04-25T14:26:28;97371.03;;;14.68
11926;BMP180;6022;48.768;18.608;2023-04-25T14:28:55;97377.03;;;14.59